KCDH/CDH METAR and TAF weather

Enter ICAO airport designator
Station Type Date Time Source
KCDH METAR 2022/06/28 15:35 UTC NOAA

KCDH 281535Z AUTO 03007KT 10SM CLR 27/18 A3019 RMK AO2


Station Type Date Time Source
KCDH Decoded METAR 2022/06/28 15:35 UTC NOAA

Camden / Harrell Field, AR, United States (KCDH) 33-37N 092-46W
Jun 28, 2022 - 11:35 AM EDT / 2022.06.28 1535 UTC
Wind: from the NNE (030 degrees) at 8 MPH (7 KT):0
Visibility: 10 mile(s):0
Sky conditions: clear
Temperature: 80 F (27 C)
Dew Point: 64 F (18 C)
Relative Humidity: 57%
Pressure (altimeter): 30.19 in. Hg (1022 hPa)
ob: KCDH 281535Z AUTO 03007KT 10SM CLR 27/18 A3019 RMK AO2
cycle: 15

Station Type Date Time Source
KCDH TAF UTC NOAA

Error!

Example: see airport list